createdAt,value
2022-10-06T00:01:06.150Z,102114.09
2022-10-06T00:03:32.827Z,102123.19
2022-10-06T00:06:01.439Z,102112.06
2022-10-06T00:08:28.805Z,102128.38
2022-10-06T00:10:56.429Z,102134.19
2022-10-06T00:13:24.437Z,102132.25
2022-10-06T00:15:51.152Z,102137.81
2022-10-06T00:18:17.750Z,102140.53
2022-10-06T00:20:44.324Z,102144.63
2022-10-06T00:23:10.893Z,102141.66
2022-10-06T00:25:37.518Z,102160.28
2022-10-06T00:28:04.051Z,102171.75
2022-10-06T00:30:31.295Z,102172.63
2022-10-06T00:33:00.935Z,102172.81
2022-10-06T00:35:30.333Z,102184.59
2022-10-06T00:37:56.836Z,102183.88
2022-10-06T00:40:23.425Z,102187.66
2022-10-06T00:43:01.818Z,102198.91
2022-10-06T00:45:34.420Z,102213.88
2022-10-06T00:48:07.000Z,102207.72
2022-10-06T00:50:34.784Z,102197.97
2022-10-06T00:53:02.717Z,102205.53
2022-10-06T00:55:31.091Z,102214.06
2022-10-06T00:57:59.277Z,102227.63
2022-10-06T01:00:25.979Z,102226.00
2022-10-06T01:03:18.233Z,102224.03
2022-10-06T01:05:49.784Z,102237.94
2022-10-06T01:08:17.297Z,102241.09
2022-10-06T01:10:43.978Z,102249.88
2022-10-06T01:13:13.306Z,102259.44
2022-10-06T01:16:06.839Z,102262.53
2022-10-06T01:18:36.183Z,102260.47
2022-10-06T01:21:12.000Z,102262.81
2022-10-06T01:23:39.630Z,102268.81
2022-10-06T01:26:10.302Z,102259.72
2022-10-06T01:28:38.931Z,102277.97
2022-10-06T01:31:07.947Z,102269.94
2022-10-06T01:33:34.528Z,102296.22
2022-10-06T01:36:01.078Z,102294.72
2022-10-06T01:38:28.055Z,102296.25
2022-10-06T01:40:54.897Z,102287.75
2022-10-06T01:43:21.677Z,102306.78
2022-10-06T01:45:57.956Z,102308.00
2022-10-06T01:48:25.777Z,102303.38
2022-10-06T01:50:53.009Z,102320.94
2022-10-06T01:53:19.790Z,102298.78
2022-10-06T01:55:46.540Z,102317.09
2022-10-06T01:58:13.507Z,102322.72
2022-10-06T02:00:40.731Z,102320.66
2022-10-06T02:03:07.765Z,102308.47
2022-10-06T02:05:34.820Z,102321.09
2022-10-06T02:08:02.601Z,102312.69
2022-10-06T02:10:29.516Z,102339.38
2022-10-06T02:12:57.149Z,102349.78
2022-10-06T02:15:24.078Z,102355.47
2022-10-06T02:17:50.616Z,102353.19
2022-10-06T02:20:17.245Z,102358.78
2022-10-06T02:22:43.893Z,102376.03
2022-10-06T02:25:14.650Z,102372.72
2022-10-06T02:27:41.196Z,102395.22
2022-10-06T02:30:08.956Z,102404.50
2022-10-06T02:32:39.054Z,102410.47
2022-10-06T02:35:06.684Z,102398.59
2022-10-06T02:37:33.552Z,102406.91
2022-10-06T02:40:00.087Z,102417.91
2022-10-06T02:42:26.739Z,102417.56
2022-10-06T02:44:53.965Z,102424.41
2022-10-06T02:47:22.253Z,102427.28
2022-10-06T02:49:48.822Z,102439.28
2022-10-06T02:52:15.510Z,102439.41
2022-10-06T02:54:42.529Z,102430.41
2022-10-06T02:57:09.618Z,102436.88
2022-10-06T02:59:36.596Z,102439.53
2022-10-06T03:02:03.482Z,102438.94
2022-10-06T03:04:30.448Z,102447.38
2022-10-06T03:06:57.449Z,102438.13
2022-10-06T03:09:24.075Z,102444.84
2022-10-06T03:11:51.005Z,102456.25
2022-10-06T03:14:21.555Z,102448.75
2022-10-06T03:16:50.304Z,102465.25
2022-10-06T03:19:16.899Z,102468.59
2022-10-06T03:21:43.961Z,102463.41
2022-10-06T03:24:11.088Z,102471.97
2022-10-06T03:26:47.894Z,102471.25
2022-10-06T03:29:16.072Z,102477.47
2022-10-06T03:31:43.493Z,102481.88
2022-10-06T03:34:10.148Z,102465.34
2022-10-06T03:36:37.021Z,102488.13
2022-10-06T03:39:05.016Z,102497.66
2022-10-06T03:41:34.102Z,102498.50
2022-10-06T03:44:01.131Z,102496.66
2022-10-06T03:46:33.465Z,102500.81
2022-10-06T03:49:01.337Z,102512.81
2022-10-06T03:51:36.706Z,102510.00
2022-10-06T03:54:03.659Z,102518.66
2022-10-06T03:56:32.601Z,102524.06
2022-10-06T03:59:01.909Z,102515.16
2022-10-06T04:01:33.112Z,102531.91
2022-10-06T04:04:00.873Z,102517.75
2022-10-06T04:06:29.773Z,102541.38
2022-10-06T04:08:57.156Z,102540.44
2022-10-06T04:11:26.466Z,102520.88
2022-10-06T04:13:56.226Z,102542.47
2022-10-06T04:16:25.383Z,102542.69
2022-10-06T04:18:55.121Z,102553.94
2022-10-06T04:21:22.089Z,102558.78
2022-10-06T04:23:48.706Z,102558.13
2022-10-06T04:26:17.682Z,102564.09
2022-10-06T04:28:45.654Z,102560.97
2022-10-06T04:31:19.260Z,102568.56
2022-10-06T04:33:47.644Z,102562.06
2022-10-06T04:36:17.300Z,102558.72
2022-10-06T04:38:44.182Z,102577.94
2022-10-06T04:41:16.885Z,102581.53
2022-10-06T04:43:46.672Z,102583.00
2022-10-06T04:46:38.042Z,102592.78
2022-10-06T04:49:00.815Z,102600.03
2022-10-06T04:51:28.006Z,102604.13
2022-10-06T04:53:54.719Z,102607.72
2022-10-06T04:56:31.815Z,102596.69
2022-10-06T04:58:59.110Z,102617.03
2022-10-06T05:01:31.455Z,102600.63
2022-10-06T05:04:00.973Z,102624.53
2022-10-06T05:06:30.350Z,102625.88
2022-10-06T05:09:00.915Z,102632.75
2022-10-06T05:11:27.889Z,102636.94
2022-10-06T05:13:56.558Z,102634.50
2022-10-06T05:16:25.068Z,102650.28
2022-10-06T05:18:51.830Z,102642.50
2022-10-06T05:21:21.472Z,102659.91
2022-10-06T05:23:48.442Z,102658.66
2022-10-06T05:26:20.962Z,102662.69
2022-10-06T05:28:47.587Z,102674.75
2022-10-06T05:31:22.723Z,102663.34
2022-10-06T05:33:49.859Z,102671.84
2022-10-06T05:36:18.998Z,102663.72
2022-10-06T05:38:46.031Z,102672.78
2022-10-06T05:41:26.757Z,102671.31
2022-10-06T05:43:53.590Z,102686.59
2022-10-06T05:46:25.409Z,102698.03
2022-10-06T05:48:55.545Z,102690.53
2022-10-06T05:51:30.027Z,102696.72
2022-10-06T05:53:57.708Z,102687.78
2022-10-06T05:56:26.352Z,102667.75
2022-10-06T05:58:54.365Z,102707.94
2022-10-06T06:01:26.319Z,102687.94
2022-10-06T06:03:55.022Z,102691.66
2022-10-06T06:06:39.130Z,102699.66
2022-10-06T06:09:17.634Z,102693.53
2022-10-06T06:11:46.955Z,102711.50
2022-10-06T06:14:16.199Z,102713.50
2022-10-06T06:16:43.887Z,102702.94
2022-10-06T06:19:12.356Z,102718.56
2022-10-06T06:21:39.870Z,102723.53
2022-10-06T06:24:06.847Z,102728.75
2022-10-06T06:26:36.853Z,102725.16
2022-10-06T06:29:05.248Z,102730.84
2022-10-06T06:31:37.509Z,102730.84
2022-10-06T06:34:06.569Z,102724.50
2022-10-06T06:36:46.843Z,102736.81
2022-10-06T06:39:15.249Z,102727.22
2022-10-06T06:41:46.394Z,102751.75
2022-10-06T06:44:13.965Z,102749.34
2022-10-06T06:46:43.464Z,102750.94
2022-10-06T06:49:12.122Z,102757.94
2022-10-06T06:51:41.705Z,102753.72
2022-10-06T06:54:10.136Z,102759.22
2022-10-06T06:56:38.617Z,102763.59
2022-10-06T06:59:11.970Z,102751.38
2022-10-06T07:01:45.872Z,102778.53
2022-10-06T07:04:14.823Z,102768.84
2022-10-06T07:06:42.586Z,102763.97
2022-10-06T07:09:10.405Z,102781.09
2022-10-06T07:11:39.524Z,102769.63
2022-10-06T07:14:12.750Z,102778.06
2022-10-06T07:16:58.477Z,102780.91
2022-10-06T07:19:57.335Z,102769.44
2022-10-06T07:22:55.491Z,102780.50
2022-10-06T07:25:26.869Z,102794.28
2022-10-06T07:27:53.796Z,102793.59
2022-10-06T07:30:22.931Z,102788.19
2022-10-06T07:32:51.226Z,102795.28
2022-10-06T07:35:20.394Z,102791.09
2022-10-06T07:37:48.500Z,102792.25
2022-10-06T07:40:15.813Z,102804.16
2022-10-06T07:42:48.937Z,102802.63
2022-10-06T07:45:39.735Z,102816.22
2022-10-06T07:48:15.370Z,102821.94
2022-10-06T07:50:43.462Z,102819.03
2022-10-06T07:53:10.357Z,102822.50
2022-10-06T07:55:39.991Z,102832.47
2022-10-06T07:58:15.157Z,102826.66
2022-10-06T08:00:42.816Z,102836.38
2022-10-06T08:03:10.702Z,102838.84
2022-10-06T08:05:39.153Z,102826.00
2022-10-06T08:08:06.690Z,102837.59
2022-10-06T08:10:34.414Z,102840.94
2022-10-06T08:13:05.166Z,102830.63
2022-10-06T08:15:31.754Z,102831.13
2022-10-06T08:18:02.098Z,102848.03
2022-10-06T08:20:28.797Z,102845.47
2022-10-06T08:22:55.359Z,102844.88
2022-10-06T08:25:24.725Z,102857.06
2022-10-06T08:27:53.500Z,102856.34
2022-10-06T08:30:20.558Z,102851.94
2022-10-06T08:32:47.748Z,102849.63
2022-10-06T08:35:14.356Z,102855.38
2022-10-06T08:37:40.935Z,102854.34
2022-10-06T08:40:13.012Z,102854.16
2022-10-06T08:42:43.271Z,102842.06
2022-10-06T08:45:21.838Z,102861.69
2022-10-06T08:47:55.440Z,102867.59
2022-10-06T08:50:26.870Z,102859.66
2022-10-06T08:53:18.600Z,102860.56
2022-10-06T08:56:03.461Z,102873.09
2022-10-06T08:58:50.405Z,102862.44
2022-10-06T09:01:20.288Z,102872.34
2022-10-06T09:03:49.166Z,102865.03
2022-10-06T09:06:35.073Z,102873.91
2022-10-06T09:09:30.882Z,102878.16
2022-10-06T09:12:04.316Z,102873.41
2022-10-06T09:14:34.772Z,102881.59
2022-10-06T09:17:08.275Z,102895.09
2022-10-06T09:19:51.233Z,102896.22
2022-10-06T09:22:20.810Z,102896.81
2022-10-06T09:24:51.151Z,102889.13
2022-10-06T09:27:24.008Z,102906.28
2022-10-06T09:29:51.540Z,102900.97
2022-10-06T09:32:21.022Z,102893.72
2022-10-06T09:34:55.283Z,102908.38
2022-10-06T09:37:23.021Z,102907.63
2022-10-06T09:39:51.591Z,102905.13
2022-10-06T09:42:29.716Z,102897.13
2022-10-06T09:45:23.769Z,102912.88
2022-10-06T09:47:50.347Z,102910.22
2022-10-06T09:50:29.741Z,102900.19
2022-10-06T09:53:03.292Z,102914.91
2022-10-06T09:55:52.103Z,102910.69
2022-10-06T09:58:26.176Z,102910.69
2022-10-06T10:00:55.837Z,102916.19
2022-10-06T10:03:26.060Z,102922.00
2022-10-06T10:06:01.383Z,102903.75
2022-10-06T10:08:32.051Z,102899.13
2022-10-06T10:11:41.375Z,102913.63
2022-10-06T10:14:20.481Z,102898.91
2022-10-06T10:16:53.072Z,102911.88
2022-10-06T10:19:36.931Z,102903.84
2022-10-06T10:22:04.149Z,102906.84
2022-10-06T10:25:08.995Z,102908.28
2022-10-06T10:27:58.213Z,102907.81
2022-10-06T10:30:24.905Z,102923.34
2022-10-06T10:32:55.624Z,102911.56
2022-10-06T10:35:29.587Z,102927.66
2022-10-06T10:38:03.781Z,102915.22
2022-10-06T10:40:32.968Z,102924.81
2022-10-06T10:43:25.742Z,102913.63
2022-10-06T10:46:17.517Z,102918.66
2022-10-06T10:48:50.778Z,102914.56
2022-10-06T10:51:40.850Z,102915.00
2022-10-06T10:54:21.327Z,102912.28
2022-10-06T10:56:50.838Z,102912.22
2022-10-06T10:59:30.870Z,102915.06
2022-10-06T11:02:11.304Z,102912.13
2022-10-06T11:04:43.436Z,102913.59
2022-10-06T11:07:17.851Z,102916.44
2022-10-06T11:10:04.771Z,102907.72
2022-10-06T11:12:57.021Z,102919.25
2022-10-06T11:16:03.298Z,102925.44
2022-10-06T11:18:42.885Z,102915.78
2022-10-06T11:21:21.572Z,102915.06
2022-10-06T11:24:16.551Z,102921.28
2022-10-06T11:27:06.837Z,102915.03
2022-10-06T11:29:48.941Z,102913.47
2022-10-06T11:32:27.908Z,102923.03
2022-10-06T11:34:54.606Z,102924.38
2022-10-06T11:37:47.359Z,102909.31
2022-10-06T11:40:28.266Z,102921.38
2022-10-06T11:43:06.233Z,102923.91
2022-10-06T11:46:14.307Z,102931.44
2022-10-06T11:48:42.414Z,102916.88
2022-10-06T11:51:24.482Z,102926.22
2022-10-06T11:53:52.049Z,102925.47
2022-10-06T11:56:18.595Z,102917.19
2022-10-06T11:58:50.904Z,102918.22
2022-10-06T12:01:33.582Z,102916.44
2022-10-06T12:04:09.268Z,102910.19
2022-10-06T12:06:41.905Z,102913.28
2022-10-06T12:09:32.630Z,102908.94
2022-10-06T12:12:00.373Z,102903.19
2022-10-06T12:17:46.152Z,102899.31
2022-10-06T12:20:28.690Z,102905.00
2022-10-06T12:23:04.813Z,102899.28
2022-10-06T12:25:41.873Z,102894.97
2022-10-06T12:28:24.194Z,102900.13
2022-10-06T12:31:06.056Z,102891.50
2022-10-06T12:33:39.367Z,102892.91
2022-10-06T12:36:24.130Z,102903.91
2022-10-06T12:39:04.972Z,102898.25
2022-10-06T12:42:01.406Z,102893.13
2022-10-06T12:44:45.633Z,102896.41
2022-10-06T12:47:22.037Z,102883.97
2022-10-06T12:49:58.668Z,102882.66
2022-10-06T12:52:48.040Z,102893.50
2022-10-06T12:55:39.868Z,102899.53
2022-10-06T12:58:16.009Z,102878.72
2022-10-06T13:00:43.853Z,102875.97
2022-10-06T13:03:26.228Z,102886.84
2022-10-06T13:05:57.282Z,102883.31
2022-10-06T13:08:27.040Z,102891.38
2022-10-06T13:11:22.615Z,102890.41
2022-10-06T13:13:54.188Z,102877.47
2022-10-06T13:16:26.565Z,102872.19
2022-10-06T13:18:58.576Z,102880.28
2022-10-06T13:21:26.349Z,102879.88
2022-10-06T13:23:53.203Z,102877.97
2022-10-06T13:26:32.357Z,102888.53
2022-10-06T13:29:00.080Z,102882.47
2022-10-06T13:31:31.725Z,102866.69
2022-10-06T13:34:06.137Z,102886.22
2022-10-06T13:36:35.661Z,102881.28
2022-10-06T13:39:16.846Z,102883.97
2022-10-06T13:41:49.925Z,102881.97
2022-10-06T13:44:19.185Z,102897.31
2022-10-06T13:46:51.609Z,102886.53
2022-10-06T13:49:28.631Z,102879.28
2022-10-06T13:51:58.093Z,102882.22
2022-10-06T13:54:33.041Z,102872.53
2022-10-06T13:56:59.620Z,102881.13
2022-10-06T13:59:33.228Z,102876.75
2022-10-06T14:02:17.896Z,102879.31
2022-10-06T14:04:45.595Z,102869.31
2022-10-06T14:07:14.206Z,102882.84
2022-10-06T14:09:42.521Z,102882.06
2022-10-06T14:12:16.256Z,102881.31
2022-10-06T14:14:51.182Z,102880.09
2022-10-06T14:17:24.272Z,102875.34
2022-10-06T14:19:51.465Z,102871.13
2022-10-06T14:22:35.512Z,102858.28
2022-10-06T14:25:02.609Z,102879.28
2022-10-06T14:27:29.122Z,102878.66
2022-10-06T14:29:56.266Z,102875.13
2022-10-06T14:32:23.018Z,102870.09
2022-10-06T14:34:49.570Z,102869.56
2022-10-06T14:37:16.191Z,102871.84
2022-10-06T14:39:43.915Z,102873.06
2022-10-06T14:42:12.200Z,102879.16
2022-10-06T14:44:39.560Z,102873.00
2022-10-06T14:47:09.389Z,102847.53
2022-10-06T14:49:40.542Z,102869.88
2022-10-06T14:52:10.386Z,102858.00
2022-10-06T14:54:37.151Z,102868.97
2022-10-06T14:57:04.933Z,102858.28
2022-10-06T14:59:31.703Z,102856.59
2022-10-06T15:01:58.266Z,102866.16
2022-10-06T15:04:25.281Z,102863.72
2022-10-06T15:07:10.401Z,102861.31
2022-10-06T15:09:37.343Z,102863.53
2022-10-06T15:12:04.564Z,102847.34
2022-10-06T15:14:31.166Z,102864.97
2022-10-06T15:17:01.014Z,102852.47
2022-10-06T15:19:27.731Z,102852.44
2022-10-06T15:21:54.545Z,102846.22
2022-10-06T15:24:21.348Z,102846.88
2022-10-06T15:27:06.917Z,102844.03
2022-10-06T15:29:37.208Z,102843.91
2022-10-06T15:32:06.349Z,102835.59
2022-10-06T15:34:34.399Z,102833.44
2022-10-06T15:37:01.652Z,102833.59
2022-10-06T15:39:30.984Z,102833.19
2022-10-06T15:41:58.650Z,102831.19
2022-10-06T15:44:25.749Z,102832.34
2022-10-06T15:46:56.466Z,102830.00
2022-10-06T15:49:25.094Z,102826.69
2022-10-06T15:51:56.873Z,102827.59
2022-10-06T15:54:25.623Z,102830.25
2022-10-06T15:56:54.228Z,102829.75
2022-10-06T15:59:24.053Z,102820.34
2022-10-06T16:02:00.373Z,102826.63
2022-10-06T16:04:38.910Z,102820.13
2022-10-06T16:07:14.103Z,102821.53
2022-10-06T16:09:46.077Z,102821.81
2022-10-06T16:12:16.336Z,102824.91
2022-10-06T16:14:46.121Z,102802.38
2022-10-06T16:17:13.544Z,102794.84
2022-10-06T16:19:40.406Z,102800.50
2022-10-06T16:22:10.400Z,102807.84
2022-10-06T16:24:37.092Z,102811.38
2022-10-06T16:27:04.039Z,102803.50
2022-10-06T16:29:30.566Z,102808.50
2022-10-06T16:31:57.849Z,102795.53
2022-10-06T16:34:25.463Z,102807.56
2022-10-06T16:36:52.294Z,102806.88
2022-10-06T16:39:22.530Z,102799.63
2022-10-06T16:41:50.382Z,102802.75
2022-10-06T16:44:17.933Z,102800.50
2022-10-06T16:46:45.066Z,102813.84
2022-10-06T16:49:11.835Z,102809.56
2022-10-06T16:51:43.681Z,102813.09
2022-10-06T16:54:12.771Z,102809.50
2022-10-06T16:56:46.774Z,102813.66
2022-10-06T16:59:18.277Z,102813.88
2022-10-06T17:01:45.341Z,102807.97
2022-10-06T17:04:14.598Z,102798.97
2022-10-06T17:06:50.083Z,102811.28
2022-10-06T17:09:21.802Z,102810.66
2022-10-06T17:11:53.651Z,102827.00
2022-10-06T17:14:21.626Z,102814.13
2022-10-06T17:16:50.862Z,102807.38
2022-10-06T17:19:19.259Z,102810.69
2022-10-06T17:21:47.984Z,102818.22
2022-10-06T17:24:17.927Z,102819.47
2022-10-06T17:26:47.326Z,102810.28
2022-10-06T17:29:21.191Z,102814.88
2022-10-06T17:31:49.829Z,102817.44
2022-10-06T17:34:21.205Z,102811.88
2022-10-06T17:36:50.969Z,102818.03
2022-10-06T17:39:22.147Z,102827.13
2022-10-06T17:41:50.512Z,102808.03
2022-10-06T17:44:23.754Z,102813.59
2022-10-06T17:46:59.349Z,102820.19
2022-10-06T17:49:26.970Z,102824.97
2022-10-06T17:51:55.033Z,102817.66
2022-10-06T17:54:24.456Z,102823.69
2022-10-06T17:56:54.844Z,102814.75
2022-10-06T17:59:31.675Z,102829.47
2022-10-06T18:02:02.436Z,102821.94
2022-10-06T18:04:29.483Z,102829.59
2022-10-06T18:06:57.028Z,102826.50
2022-10-06T18:09:24.054Z,102826.81
2022-10-06T18:11:55.897Z,102821.75
2022-10-06T18:14:27.871Z,102815.84
2022-10-06T18:16:58.321Z,102817.78
2022-10-06T18:19:35.771Z,102812.00
2022-10-06T18:22:09.814Z,102821.63
2022-10-06T18:24:36.962Z,102815.59
2022-10-06T18:27:05.692Z,102811.31
2022-10-06T18:29:35.102Z,102815.25
2022-10-06T18:32:56.670Z,102814.44
2022-10-06T18:37:35.341Z,102836.88
2022-10-06T18:40:06.252Z,102838.28
2022-10-06T18:42:33.217Z,102827.44
2022-10-06T18:45:18.697Z,102824.56
2022-10-06T18:48:03.597Z,102827.69
2022-10-06T18:50:31.056Z,102824.81
2022-10-06T18:52:57.689Z,102829.56
2022-10-06T18:55:24.258Z,102827.50
2022-10-06T18:57:51.380Z,102830.53
2022-10-06T19:00:18.076Z,102822.81
2022-10-06T19:02:48.285Z,102816.03
2022-10-06T19:05:15.211Z,102830.25
2022-10-06T19:07:42.025Z,102829.22
2022-10-06T19:10:08.940Z,102822.69
2022-10-06T19:12:35.529Z,102814.09
2022-10-06T19:15:02.551Z,102822.88
2022-10-06T19:17:29.065Z,102820.50
2022-10-06T19:19:56.043Z,102827.75
2022-10-06T19:22:24.625Z,102835.00
2022-10-06T19:24:52.397Z,102822.50
2022-10-06T19:27:24.223Z,102836.69
2022-10-06T19:29:56.501Z,102834.25
2022-10-06T19:32:31.102Z,102831.81
2022-10-06T19:34:59.083Z,102832.63
2022-10-06T19:37:30.472Z,102832.75
2022-10-06T19:39:57.165Z,102844.53
2022-10-06T19:42:42.654Z,102835.94
2022-10-06T19:45:11.786Z,102835.53
2022-10-06T19:47:38.562Z,102833.84
2022-10-06T19:50:11.590Z,102836.16
2022-10-06T19:52:38.944Z,102846.09
2022-10-06T19:55:05.844Z,102827.63
2022-10-06T19:57:33.746Z,102842.19
2022-10-06T20:00:00.748Z,102831.34
2022-10-06T20:02:28.965Z,102826.78
2022-10-06T20:04:56.006Z,102824.84
2022-10-06T20:07:25.483Z,102825.94
2022-10-06T20:09:52.052Z,102825.53
2022-10-06T20:12:22.251Z,102830.34
2022-10-06T20:14:50.233Z,102833.78
2022-10-06T20:17:17.548Z,102840.19
2022-10-06T20:19:44.199Z,102837.41
2022-10-06T20:22:10.767Z,102845.94
2022-10-06T20:24:37.256Z,102840.66
2022-10-06T20:27:04.180Z,102840.66
2022-10-06T20:29:31.549Z,102854.53
2022-10-06T20:32:01.117Z,102841.41
2022-10-06T20:34:32.822Z,102843.56
2022-10-06T20:37:02.044Z,102828.88
2022-10-06T20:39:48.799Z,102843.91
2022-10-06T20:42:15.820Z,102840.34
2022-10-06T20:44:43.103Z,102835.94
2022-10-06T20:47:11.393Z,102839.91
2022-10-06T20:49:38.510Z,102847.06
2022-10-06T20:52:05.755Z,102839.50
2022-10-06T20:54:35.007Z,102858.75
2022-10-06T20:57:04.678Z,102838.19
2022-10-06T20:59:32.045Z,102828.81
2022-10-06T21:02:02.467Z,102854.19
2022-10-06T21:04:29.282Z,102854.56
2022-10-06T21:06:56.346Z,102850.19
2022-10-06T21:09:24.374Z,102844.56
2022-10-06T21:11:51.495Z,102852.22
2022-10-06T21:14:18.214Z,102849.31
2022-10-06T21:16:47.663Z,102846.75
2022-10-06T21:19:16.763Z,102836.63
2022-10-06T21:21:45.973Z,102845.22
2022-10-06T21:24:12.588Z,102845.59
2022-10-06T21:26:41.318Z,102841.25
2022-10-06T21:29:08.664Z,102833.97
2022-10-06T21:31:35.349Z,102846.69
2022-10-06T21:34:02.484Z,102852.41
2022-10-06T21:36:32.124Z,102855.66
2022-10-06T21:39:00.779Z,102845.25
2022-10-06T21:41:30.373Z,102844.09
2022-10-06T21:44:15.920Z,102852.41
2022-10-06T21:46:46.765Z,102839.19
2022-10-06T21:49:15.496Z,102841.16
2022-10-06T21:51:45.616Z,102844.22
2022-10-06T21:54:12.464Z,102838.41
2022-10-06T21:56:39.853Z,102831.91
2022-10-06T21:59:07.251Z,102834.03
2022-10-06T22:01:38.896Z,102816.91
2022-10-06T22:04:06.179Z,102806.41
2022-10-06T22:06:34.453Z,102812.56
2022-10-06T22:09:01.381Z,102824.72
2022-10-06T22:11:30.888Z,102822.94
2022-10-06T22:14:00.995Z,102811.28
2022-10-06T22:16:30.058Z,102807.22
2022-10-06T22:18:57.060Z,102827.88
2022-10-06T22:21:25.930Z,102822.19
2022-10-06T22:24:10.703Z,102811.13
2022-10-06T22:26:39.480Z,102809.81
2022-10-06T22:29:11.578Z,102792.63
2022-10-06T22:31:42.880Z,102802.53
2022-10-06T22:34:12.068Z,102817.97
2022-10-06T22:36:39.088Z,102807.38
2022-10-06T22:39:05.730Z,102804.13
2022-10-06T22:41:32.541Z,102800.06
2022-10-06T22:43:59.778Z,102802.53
2022-10-06T22:46:33.800Z,102805.28
2022-10-06T22:49:00.446Z,102779.41
2022-10-06T22:51:26.974Z,102791.78
2022-10-06T22:53:57.895Z,102794.53
2022-10-06T22:56:29.759Z,102787.84
2022-10-06T22:58:59.635Z,102777.28
2022-10-06T23:01:27.237Z,102777.44
2022-10-06T23:03:55.658Z,102774.19
2022-10-06T23:06:22.321Z,102772.25
2022-10-06T23:08:48.880Z,102767.88
2022-10-06T23:11:19.652Z,102744.81
2022-10-06T23:13:46.462Z,102774.06
2022-10-06T23:16:14.900Z,102773.25
2022-10-06T23:18:43.231Z,102773.91
2022-10-06T23:21:11.332Z,102757.84
2022-10-06T23:23:38.220Z,102769.84
2022-10-06T23:26:10.554Z,102755.22
2022-10-06T23:28:37.975Z,102756.72
2022-10-06T23:31:06.341Z,102758.94
2022-10-06T23:33:33.762Z,102742.41
2022-10-06T23:36:08.756Z,102751.34
2022-10-06T23:38:36.977Z,102736.72
2022-10-06T23:41:04.358Z,102749.06
2022-10-06T23:43:30.941Z,102742.06
2022-10-06T23:45:57.717Z,102740.47
2022-10-06T23:48:24.535Z,102746.78
2022-10-06T23:51:12.234Z,102729.72
2022-10-06T23:53:39.473Z,102728.75
2022-10-06T23:56:06.622Z,102740.44
2022-10-06T23:58:33.546Z,102719.50
